Chute-aux-Outardes, Canada
Current Conditions -  °F | °C
As of 11:00 AM on Monday 22 Dec 2014 (Local Time) from CYBC Reporting Station
Light Snow Light Snow  
Wind Chill: 13°   Ceiling: 1700
Heat Index: 21°   Visibility: 9mi
Dew Point: 16°   Wind: 7mph
Humidity: 80%   Direction: 270°W
Pressure: 30.45"   Gusts: NA
Location:  49.13°N, 68.39°W
Report Text: CYBC 221600Z AUTO 27006KT 260V330 9SM -SN OVC017 M06/M09 A3045 RMK SLP314
Loading
Personal Weather Stations






























Interactive Weather Map New forecast layout! Learn more

10-Day Weather Forecast

Advertisements
Track Severe Weather on mobile